createdAt,value
2022-11-09T00:02:26.581Z,3.63
2022-11-09T00:04:54.813Z,3.75
2022-11-09T00:07:22.897Z,3.35
2022-11-09T00:09:51.088Z,2.92
2022-11-09T00:12:31.226Z,4.15
2022-11-09T00:15:09.670Z,3.08
2022-11-09T00:17:37.850Z,3.20
2022-11-09T00:20:15.144Z,4.43
2022-11-09T00:22:43.301Z,3.75
2022-11-09T00:25:11.389Z,3.47
2022-11-09T00:27:42.385Z,4.13
2022-11-09T00:30:15.410Z,4.13
2022-11-09T00:32:44.626Z,3.58
2022-11-09T00:35:12.645Z,3.70
2022-11-09T00:37:40.823Z,3.78
2022-11-09T00:40:10.849Z,3.83
2022-11-09T00:42:38.858Z,4.00
2022-11-09T00:45:07.555Z,4.10
2022-11-09T00:47:37.583Z,4.30
2022-11-09T00:50:06.749Z,4.05
2022-11-09T00:52:34.835Z,4.65
2022-11-09T00:55:02.797Z,4.95
2022-11-09T00:57:30.816Z,5.03
2022-11-09T00:59:58.886Z,4.40
2022-11-09T01:02:27.447Z,3.85
2022-11-09T01:04:57.622Z,4.50
2022-11-09T01:07:26.055Z,4.85
2022-11-09T01:09:57.503Z,4.38
2022-11-09T01:12:25.659Z,4.63
2022-11-09T01:14:54.029Z,4.60
2022-11-09T01:17:30.042Z,4.65
2022-11-09T01:20:03.868Z,4.32
2022-11-09T01:22:31.959Z,4.22
2022-11-09T01:25:00.624Z,4.53
2022-11-09T01:27:28.744Z,4.28
2022-11-09T01:29:59.657Z,4.55
2022-11-09T01:32:27.972Z,3.80
2022-11-09T01:34:58.418Z,4.13
2022-11-09T01:37:45.511Z,3.80
2022-11-09T01:40:22.261Z,3.75
2022-11-09T01:42:50.479Z,4.00
2022-11-09T01:45:37.968Z,4.28
2022-11-09T01:48:15.142Z,4.85
2022-11-09T01:50:54.296Z,4.25
2022-11-09T01:53:28.291Z,5.28
2022-11-09T01:56:01.294Z,5.28
2022-11-09T01:58:33.083Z,5.22
2022-11-09T02:01:02.616Z,5.90
2022-11-09T02:03:34.708Z,5.95
2022-11-09T02:06:07.706Z,6.70
2022-11-09T02:08:37.443Z,7.72
2022-11-09T02:11:09.848Z,8.48
2022-11-09T02:13:39.988Z,8.45
2022-11-09T02:16:09.405Z,8.25
2022-11-09T02:18:40.415Z,9.40
2022-11-09T02:21:10.068Z,8.68
2022-11-09T02:23:38.297Z,9.38
2022-11-09T02:26:10.515Z,10.10
2022-11-09T02:28:40.625Z,12.70
2022-11-09T02:31:14.495Z,16.58
2022-11-09T02:33:45.464Z,15.63
2022-11-09T02:36:14.841Z,13.77
2022-11-09T02:38:42.974Z,10.23
2022-11-09T02:41:13.149Z,8.07
2022-11-09T02:43:42.045Z,7.97
2022-11-09T02:46:12.081Z,7.57
2022-11-09T02:48:40.328Z,7.25
2022-11-09T02:51:08.493Z,7.13
2022-11-09T02:53:38.437Z,7.55
2022-11-09T02:56:07.601Z,7.72
2022-11-09T02:58:35.727Z,8.18
2022-11-09T03:01:04.013Z,7.60
2022-11-09T03:03:32.647Z,7.40
2022-11-09T03:06:01.186Z,8.25
2022-11-09T03:08:29.457Z,7.88
2022-11-09T03:11:03.709Z,8.52
2022-11-09T03:13:31.779Z,8.23
2022-11-09T03:15:59.902Z,7.68
2022-11-09T03:18:28.030Z,9.35
2022-11-09T03:20:56.092Z,8.35
2022-11-09T03:23:24.150Z,9.32
2022-11-09T03:25:52.258Z,10.38
2022-11-09T03:28:22.200Z,11.70
2022-11-09T03:30:50.460Z,11.95
2022-11-09T03:33:18.990Z,11.63
2022-11-09T03:35:47.564Z,13.13
2022-11-09T03:38:15.718Z,12.30
2022-11-09T03:40:43.990Z,10.13
2022-11-09T03:43:12.491Z,9.98
2022-11-09T03:45:42.011Z,8.65
2022-11-09T03:48:10.355Z,9.50
2022-11-09T03:50:40.479Z,9.10
2022-11-09T03:53:09.685Z,8.52
2022-11-09T03:55:37.851Z,9.98
2022-11-09T03:58:07.772Z,9.48
2022-11-09T04:00:36.414Z,10.25
2022-11-09T04:03:06.304Z,8.02
2022-11-09T04:05:34.355Z,8.27
2022-11-09T04:08:02.436Z,8.88
2022-11-09T04:10:30.458Z,8.85
2022-11-09T04:12:58.549Z,9.23
2022-11-09T04:15:26.918Z,9.38
2022-11-09T04:17:59.948Z,9.50
2022-11-09T04:20:31.060Z,9.55
2022-11-09T04:23:03.982Z,9.48
2022-11-09T04:25:34.552Z,9.98
2022-11-09T04:28:03.977Z,10.30
2022-11-09T04:30:33.834Z,9.80
2022-11-09T04:33:02.850Z,9.98
2022-11-09T04:35:34.251Z,9.75
2022-11-09T04:38:03.780Z,10.60
2022-11-09T04:40:33.772Z,10.88
2022-11-09T04:43:02.558Z,10.60
2022-11-09T04:45:30.612Z,11.15
2022-11-09T04:47:59.895Z,10.85
2022-11-09T04:50:28.532Z,11.35
2022-11-09T04:53:07.869Z,10.80
2022-11-09T04:55:36.392Z,10.68
2022-11-09T04:58:05.077Z,10.60
2022-11-09T05:00:36.263Z,11.07
2022-11-09T05:03:05.471Z,10.88
2022-11-09T05:05:34.906Z,11.18
2022-11-09T05:08:05.181Z,11.68
2022-11-09T05:10:33.996Z,11.23
2022-11-09T05:13:03.504Z,10.93
2022-11-09T05:15:32.437Z,11.40
2022-11-09T05:18:01.832Z,11.82
2022-11-09T05:20:30.439Z,11.40
2022-11-09T05:23:17.242Z,11.20
2022-11-09T05:25:47.696Z,11.50
2022-11-09T05:28:16.028Z,11.30
2022-11-09T05:30:44.575Z,11.70
2022-11-09T05:33:12.680Z,11.23
2022-11-09T05:35:40.918Z,11.02
2022-11-09T05:38:11.987Z,11.07
2022-11-09T05:40:42.039Z,10.38
2022-11-09T05:43:23.286Z,10.40
2022-11-09T05:45:52.252Z,9.23
2022-11-09T05:48:23.089Z,9.38
2022-11-09T05:50:51.559Z,10.05
2022-11-09T05:53:20.121Z,10.23
2022-11-09T05:55:48.878Z,9.93
2022-11-09T05:58:18.828Z,9.27
2022-11-09T06:00:47.063Z,9.57
2022-11-09T06:03:18.659Z,9.98
2022-11-09T06:05:49.029Z,9.50
2022-11-09T06:08:17.253Z,9.10
2022-11-09T06:10:45.617Z,9.50
2022-11-09T06:13:30.418Z,10.27
2022-11-09T06:16:00.243Z,8.43
2022-11-09T06:18:32.487Z,9.38
2022-11-09T06:21:09.973Z,8.55
2022-11-09T06:23:40.971Z,9.13
2022-11-09T06:26:11.608Z,9.18
2022-11-09T06:28:42.367Z,9.43
2022-11-09T06:31:13.994Z,8.45
2022-11-09T06:33:42.088Z,8.33
2022-11-09T06:36:11.264Z,8.80
2022-11-09T06:38:39.709Z,9.32
2022-11-09T06:41:07.970Z,8.55
2022-11-09T06:43:38.750Z,8.90
2022-11-09T06:46:11.052Z,8.38
2022-11-09T06:48:39.849Z,8.75
2022-11-09T06:51:08.582Z,9.13
2022-11-09T06:53:37.870Z,9.57
2022-11-09T06:56:08.981Z,12.57
2022-11-09T06:58:37.505Z,13.00
2022-11-09T07:01:11.097Z,11.85
2022-11-09T07:03:40.028Z,9.80
2022-11-09T07:06:11.688Z,7.72
2022-11-09T07:08:42.590Z,7.93
2022-11-09T07:11:12.588Z,7.57
2022-11-09T07:13:41.098Z,8.20
2022-11-09T07:16:12.698Z,8.98
2022-11-09T07:18:40.896Z,8.85
2022-11-09T07:21:13.753Z,10.65
2022-11-09T07:23:42.885Z,10.18
2022-11-09T07:26:14.071Z,9.07
2022-11-09T07:28:42.211Z,8.45
2022-11-09T07:31:11.864Z,6.20
2022-11-09T07:33:41.113Z,6.47
2022-11-09T07:36:09.820Z,6.45
2022-11-09T07:38:37.809Z,6.18
2022-11-09T07:41:05.965Z,5.82
2022-11-09T07:43:34.037Z,6.53
2022-11-09T07:46:04.941Z,5.30
2022-11-09T07:48:34.614Z,5.72
2022-11-09T07:51:03.368Z,5.45
2022-11-09T07:53:31.589Z,6.07
2022-11-09T07:56:01.402Z,6.25
2022-11-09T07:58:29.940Z,6.47
2022-11-09T08:01:01.209Z,6.30
2022-11-09T08:03:30.503Z,6.50
2022-11-09T08:06:01.407Z,6.00
2022-11-09T08:08:29.570Z,5.93
2022-11-09T08:11:04.248Z,5.32
2022-11-09T08:13:34.986Z,5.20
2022-11-09T08:16:10.857Z,4.80
2022-11-09T08:18:43.668Z,4.15
2022-11-09T08:21:15.450Z,3.70
2022-11-09T08:23:43.638Z,3.22
2022-11-09T08:26:17.724Z,3.17
2022-11-09T08:28:48.685Z,3.42
2022-11-09T08:31:27.785Z,2.78
2022-11-09T08:34:02.037Z,3.00
2022-11-09T08:36:39.303Z,2.47
2022-11-09T08:39:15.545Z,2.47
2022-11-09T08:42:00.954Z,2.40
2022-11-09T08:44:32.856Z,1.75
2022-11-09T08:49:47.298Z,1.70
2022-11-09T08:52:37.717Z,1.48
2022-11-09T08:55:18.432Z,1.83
2022-11-09T08:58:05.063Z,1.35
2022-11-09T09:00:36.449Z,1.95
2022-11-09T09:03:07.063Z,1.80
2022-11-09T09:05:36.824Z,1.60
2022-11-09T09:08:11.784Z,1.58
2022-11-09T09:10:40.548Z,1.60
2022-11-09T09:13:10.550Z,1.70
2022-11-09T09:15:38.995Z,1.58
2022-11-09T09:18:07.655Z,1.80
2022-11-09T09:20:36.223Z,2.17
2022-11-09T09:23:06.542Z,1.60
2022-11-09T09:25:35.013Z,1.30
2022-11-09T09:28:05.812Z,1.70
2022-11-09T09:30:38.168Z,1.73
2022-11-09T09:33:06.728Z,1.67
2022-11-09T09:35:34.932Z,1.40
2022-11-09T09:38:03.132Z,1.50
2022-11-09T09:40:38.316Z,1.38
2022-11-09T09:43:06.695Z,1.90
2022-11-09T09:45:40.506Z,1.42
2022-11-09T09:48:26.700Z,1.42
2022-11-09T09:51:00.199Z,1.70
2022-11-09T09:53:33.800Z,1.50
2022-11-09T09:56:07.524Z,1.73
2022-11-09T09:58:40.352Z,1.70
2022-11-09T10:01:15.283Z,1.38
2022-11-09T10:03:43.651Z,1.80
2022-11-09T10:06:27.794Z,1.30
2022-11-09T10:09:06.957Z,1.48
2022-11-09T10:11:48.660Z,1.70
2022-11-09T10:14:36.907Z,1.37
2022-11-09T10:17:14.825Z,1.58
2022-11-09T10:19:58.797Z,1.75
2022-11-09T10:22:37.324Z,1.35
2022-11-09T10:28:13.069Z,1.20
2022-11-09T10:30:42.313Z,1.20
2022-11-09T10:33:18.491Z,1.33
2022-11-09T10:35:50.655Z,1.20
2022-11-09T10:38:24.947Z,1.13
2022-11-09T10:40:55.677Z,1.23
2022-11-09T10:43:27.622Z,1.02
2022-11-09T10:46:05.555Z,1.33
2022-11-09T10:48:35.829Z,1.13
2022-11-09T10:51:09.240Z,1.40
2022-11-09T10:53:37.671Z,0.90
2022-11-09T10:56:20.806Z,1.27
2022-11-09T10:58:53.046Z,0.80
2022-11-09T11:01:23.194Z,1.40
2022-11-09T11:03:53.273Z,1.20
2022-11-09T11:06:31.728Z,1.00
2022-11-09T11:09:16.625Z,1.13
2022-11-09T11:11:58.751Z,1.05
2022-11-09T11:14:33.022Z,1.35
2022-11-09T11:17:01.334Z,1.38
2022-11-09T11:19:35.656Z,1.20
2022-11-09T11:22:23.964Z,2.10
2022-11-09T11:24:57.390Z,1.40
2022-11-09T11:27:31.147Z,2.05
2022-11-09T11:30:06.763Z,1.50
2022-11-09T11:32:35.105Z,1.38
2022-11-09T11:35:05.934Z,1.50
2022-11-09T11:37:47.578Z,1.70
2022-11-09T11:40:21.513Z,1.50
2022-11-09T11:43:08.104Z,2.15
2022-11-09T11:45:42.269Z,2.13
2022-11-09T11:48:36.137Z,1.23
2022-11-09T11:51:11.862Z,1.20
2022-11-09T11:53:56.143Z,1.05
2022-11-09T11:56:28.396Z,1.27
2022-11-09T11:59:37.576Z,1.40
2022-11-09T12:02:34.011Z,1.38
2022-11-09T12:05:46.840Z,1.33
2022-11-09T12:08:21.613Z,1.40
2022-11-09T12:10:57.254Z,1.40
2022-11-09T12:13:56.734Z,1.20
2022-11-09T12:17:02.217Z,1.40
2022-11-09T12:20:22.565Z,1.30
2022-11-09T12:24:04.910Z,1.52
2022-11-09T12:27:11.028Z,2.38
2022-11-09T12:30:08.199Z,1.42
2022-11-09T12:32:59.460Z,1.70
2022-11-09T12:35:51.278Z,1.85
2022-11-09T12:38:32.591Z,1.98
2022-11-09T12:41:25.580Z,1.30
2022-11-09T12:44:17.480Z,1.52
2022-11-09T12:47:06.151Z,1.40
2022-11-09T12:50:00.106Z,1.65
2022-11-09T12:52:55.619Z,1.55
2022-11-09T12:56:13.184Z,1.63
2022-11-09T12:59:54.331Z,1.73
2022-11-09T13:02:35.454Z,1.50
2022-11-09T13:05:12.583Z,1.75
2022-11-09T13:08:51.751Z,1.33
2022-11-09T13:11:53.664Z,1.27
2022-11-09T13:14:41.997Z,1.10
2022-11-09T13:18:03.385Z,1.08
2022-11-09T13:20:59.002Z,0.90
2022-11-09T13:26:45.928Z,1.60
2022-11-09T13:29:25.598Z,1.30
2022-11-09T13:32:05.282Z,1.00
2022-11-09T13:34:49.109Z,1.02
2022-11-09T13:37:47.702Z,1.23
2022-11-09T13:40:43.268Z,1.05
2022-11-09T13:43:21.169Z,1.40
2022-11-09T13:45:56.002Z,1.38
2022-11-09T13:48:37.809Z,1.42
2022-11-09T13:51:08.767Z,1.47
2022-11-09T13:53:55.131Z,1.13
2022-11-09T13:56:35.460Z,2.20
2022-11-09T13:59:14.979Z,1.10
2022-11-09T14:01:51.008Z,1.40
2022-11-09T14:04:24.796Z,1.35
2022-11-09T14:07:02.552Z,1.20
2022-11-09T14:09:45.603Z,1.50
2022-11-09T14:12:29.176Z,2.08
2022-11-09T14:15:20.891Z,1.02
2022-11-09T14:18:02.054Z,1.23
2022-11-09T14:20:39.869Z,1.20
2022-11-09T14:23:17.480Z,1.52
2022-11-09T14:25:46.762Z,1.27
2022-11-09T14:28:36.718Z,1.50
2022-11-09T14:31:27.904Z,1.10
2022-11-09T14:34:04.170Z,1.27
2022-11-09T14:36:47.204Z,1.50
2022-11-09T14:39:34.231Z,1.30
2022-11-09T14:42:06.747Z,1.67
2022-11-09T14:47:41.228Z,1.30
2022-11-09T14:50:17.082Z,1.98
2022-11-09T14:53:03.106Z,1.60
2022-11-09T14:56:33.378Z,1.70
2022-11-09T14:59:17.279Z,1.65
2022-11-09T15:02:18.087Z,1.35
2022-11-09T15:05:06.074Z,1.35
2022-11-09T15:07:40.760Z,1.40
2022-11-09T15:10:30.690Z,1.45
2022-11-09T15:16:09.833Z,1.50
2022-11-09T15:18:51.163Z,1.63
2022-11-09T15:21:44.653Z,1.30
2022-11-09T15:24:46.362Z,1.73
2022-11-09T15:27:44.984Z,1.38
2022-11-09T15:30:46.689Z,1.52
2022-11-09T15:33:49.430Z,1.50
2022-11-09T15:36:30.901Z,1.48
2022-11-09T15:39:09.632Z,1.70
2022-11-09T15:41:38.806Z,1.63
2022-11-09T15:44:10.652Z,1.70
2022-11-09T15:46:45.390Z,1.65
2022-11-09T15:49:19.087Z,1.95
2022-11-09T15:51:47.595Z,1.70
2022-11-09T15:54:16.675Z,1.50
2022-11-09T15:56:45.606Z,1.70
2022-11-09T15:59:24.285Z,1.80
2022-11-09T16:01:53.300Z,2.88
2022-11-09T16:04:23.247Z,2.65
2022-11-09T16:06:51.529Z,2.00
2022-11-09T16:09:19.831Z,1.92
2022-11-09T16:11:52.222Z,2.03
2022-11-09T16:16:50.846Z,2.13
2022-11-09T16:19:19.436Z,1.85
2022-11-09T16:21:49.416Z,1.92
2022-11-09T16:24:17.840Z,2.38
2022-11-09T16:26:46.655Z,2.30
2022-11-09T16:29:15.253Z,2.47
2022-11-09T16:31:52.445Z,2.88
2022-11-09T16:34:21.289Z,2.55
2022-11-09T16:36:56.563Z,2.47
2022-11-09T16:39:27.192Z,2.60
2022-11-09T16:41:56.840Z,2.80
2022-11-09T16:44:37.845Z,2.90
2022-11-09T16:47:09.922Z,2.63
2022-11-09T16:49:38.104Z,3.08
2022-11-09T16:52:08.120Z,2.83
2022-11-09T16:54:38.702Z,2.33
2022-11-09T16:57:08.131Z,2.35
2022-11-09T16:59:36.295Z,2.40
2022-11-09T17:02:04.436Z,2.70
2022-11-09T17:04:33.516Z,2.40
2022-11-09T17:07:01.841Z,3.15
2022-11-09T17:09:37.292Z,2.30
2022-11-09T17:12:06.268Z,2.38
2022-11-09T17:14:34.393Z,2.38
2022-11-09T17:17:02.642Z,2.65
2022-11-09T17:19:33.693Z,2.28
2022-11-09T17:22:01.862Z,2.58
2022-11-09T17:24:31.822Z,2.58
2022-11-09T17:27:00.443Z,3.00
2022-11-09T17:29:28.694Z,3.03
2022-11-09T17:31:57.984Z,3.20
2022-11-09T17:34:26.123Z,2.83
2022-11-09T17:37:09.366Z,3.22
2022-11-09T17:39:38.930Z,3.05
2022-11-09T17:42:07.272Z,2.92
2022-11-09T17:44:36.487Z,4.10
2022-11-09T17:47:05.161Z,3.55
2022-11-09T17:49:33.537Z,3.30
2022-11-09T17:52:01.634Z,3.30
2022-11-09T17:54:35.531Z,3.03
2022-11-09T17:57:06.121Z,3.08
2022-11-09T17:59:34.877Z,3.03
2022-11-09T18:02:02.953Z,2.80
2022-11-09T18:04:31.015Z,3.53
2022-11-09T18:06:59.137Z,3.28
2022-11-09T18:09:40.805Z,2.97
2022-11-09T18:12:10.972Z,3.47
2022-11-09T18:14:46.192Z,3.00
2022-11-09T18:17:14.318Z,3.20
2022-11-09T18:19:42.358Z,2.80
2022-11-09T18:22:12.895Z,2.90
2022-11-09T18:24:41.237Z,2.85
2022-11-09T18:27:10.777Z,3.63
2022-11-09T18:29:38.861Z,3.50
2022-11-09T18:32:09.560Z,3.72
2022-11-09T18:34:37.645Z,4.28
2022-11-09T18:37:05.731Z,4.22
2022-11-09T18:39:33.764Z,4.20
2022-11-09T18:42:01.942Z,4.22
2022-11-09T18:44:31.770Z,4.25
2022-11-09T18:47:05.299Z,4.35
2022-11-09T18:49:37.217Z,4.38
2022-11-09T18:52:05.816Z,4.63
2022-11-09T18:54:35.589Z,4.10
2022-11-09T18:57:03.685Z,4.28
2022-11-09T18:59:34.042Z,4.03
2022-11-09T19:02:02.150Z,4.88
2022-11-09T19:04:30.287Z,5.07
2022-11-09T19:06:58.509Z,4.45
2022-11-09T19:09:42.285Z,4.20
2022-11-09T19:12:11.706Z,4.53
2022-11-09T19:14:41.792Z,3.63
2022-11-09T19:17:13.641Z,4.30
2022-11-09T19:19:42.438Z,5.25
2022-11-09T19:22:16.869Z,4.65
2022-11-09T19:24:48.162Z,4.88
2022-11-09T19:27:16.630Z,4.60
2022-11-09T19:29:46.977Z,5.68
2022-11-09T19:32:17.919Z,4.72
2022-11-09T19:34:48.674Z,3.72
2022-11-09T19:37:16.895Z,4.43
2022-11-09T19:39:47.689Z,3.95
2022-11-09T19:42:15.921Z,3.40
2022-11-09T19:44:45.407Z,3.08
2022-11-09T19:47:13.526Z,3.60
2022-11-09T19:49:41.621Z,3.53
2022-11-09T19:52:09.925Z,4.10
2022-11-09T19:54:39.338Z,3.80
2022-11-09T19:57:07.440Z,2.95
2022-11-09T19:59:37.224Z,3.20
2022-11-09T20:02:07.036Z,2.90
2022-11-09T20:04:35.364Z,2.70
2022-11-09T20:07:03.473Z,2.88
2022-11-09T20:09:32.339Z,2.85
2022-11-09T20:12:20.996Z,2.75
2022-11-09T20:14:49.527Z,3.33
2022-11-09T20:17:21.591Z,3.28
2022-11-09T20:19:51.558Z,2.92
2022-11-09T20:22:19.694Z,3.05
2022-11-09T20:24:47.952Z,3.22
2022-11-09T20:27:16.177Z,3.30
2022-11-09T20:29:44.210Z,2.53
2022-11-09T20:32:16.706Z,2.60
2022-11-09T20:34:50.267Z,3.00
2022-11-09T20:37:21.405Z,2.78
2022-11-09T20:39:49.511Z,2.47
2022-11-09T20:42:18.586Z,2.50
2022-11-09T20:44:49.031Z,2.42
2022-11-09T20:47:35.487Z,2.92
2022-11-09T20:50:08.148Z,2.75
2022-11-09T20:52:36.525Z,2.45
2022-11-09T20:55:05.348Z,2.40
2022-11-09T20:57:33.425Z,2.63
2022-11-09T21:00:01.478Z,2.47
2022-11-09T21:02:29.484Z,2.72
2022-11-09T21:04:57.475Z,2.30
2022-11-09T21:07:26.872Z,2.63
2022-11-09T21:09:59.027Z,2.10
2022-11-09T21:12:27.792Z,2.60
2022-11-09T21:14:56.279Z,2.53
2022-11-09T21:17:26.994Z,2.40
2022-11-09T21:19:55.273Z,2.47
2022-11-09T21:22:43.365Z,2.38
2022-11-09T21:25:30.199Z,2.85
2022-11-09T21:28:15.940Z,2.88
2022-11-09T21:30:44.117Z,2.72
2022-11-09T21:33:12.277Z,2.58
2022-11-09T21:35:43.245Z,2.65
2022-11-09T21:38:11.348Z,2.58
2022-11-09T21:40:40.863Z,3.80
2022-11-09T21:43:08.832Z,2.40
2022-11-09T21:45:38.758Z,3.00
2022-11-09T21:48:07.981Z,2.45
2022-11-09T21:50:36.692Z,3.35
2022-11-09T21:53:05.332Z,2.90
2022-11-09T21:55:35.288Z,2.83
2022-11-09T21:58:04.775Z,3.40
2022-11-09T22:00:32.867Z,3.60
2022-11-09T22:03:03.705Z,3.00
2022-11-09T22:05:33.106Z,3.50
2022-11-09T22:08:01.340Z,3.40
2022-11-09T22:10:29.396Z,2.78
2022-11-09T22:13:14.918Z,3.50
2022-11-09T22:16:01.894Z,3.67
2022-11-09T22:18:49.897Z,3.10
2022-11-09T22:21:18.108Z,3.60
2022-11-09T22:23:46.192Z,2.85
2022-11-09T22:26:14.576Z,3.90
2022-11-09T22:28:42.783Z,3.10
2022-11-09T22:31:13.573Z,2.60
2022-11-09T22:33:41.636Z,2.60
2022-11-09T22:36:13.173Z,3.10
2022-11-09T22:38:41.691Z,3.10
2022-11-09T22:41:13.840Z,3.08
2022-11-09T22:43:43.417Z,2.88
2022-11-09T22:46:16.685Z,2.83
2022-11-09T22:48:45.686Z,2.60
2022-11-09T22:51:15.259Z,3.22
2022-11-09T22:53:48.425Z,2.95
2022-11-09T22:56:18.347Z,2.92
2022-11-09T22:58:46.817Z,3.15
2022-11-09T23:02:03.277Z,2.83
2022-11-09T23:05:05.783Z,2.90
2022-11-09T23:08:17.513Z,2.97
2022-11-09T23:11:22.026Z,3.25
2022-11-09T23:14:15.209Z,2.72
2022-11-09T23:17:55.841Z,3.33
2022-11-09T23:21:00.538Z,3.50
2022-11-09T23:23:33.833Z,3.17
2022-11-09T23:26:31.273Z,3.95
2022-11-09T23:29:10.230Z,3.50
2022-11-09T23:32:03.295Z,2.90
2022-11-09T23:34:41.983Z,3.00
2022-11-09T23:37:27.115Z,4.03
2022-11-09T23:40:15.389Z,3.28
2022-11-09T23:42:58.589Z,3.72
2022-11-09T23:48:44.784Z,3.33
2022-11-09T23:51:32.376Z,2.75
2022-11-09T23:57:29.843Z,3.75
